Time;durP1;ratioP1;P1;durP2;ratioP2;P2;SDS_P1;SDS_P2;PMS_P1;PMS_P2;Temp;Humidity;BMP_temperature;BMP_pressure;BME280_temperature;BME280_humidity;BME280_pressure;Samples;Min_cycle;Max_cycle;Signal;HPM_P1;HPM_P2
2021/11/07 00:01:53;;;;;;;1.33;1.25;;;;;;;7.22;79.99;99076.66;6331399;22;20050;-73
2021/11/07 00:04:31;;;;;;;0.70;0.70;;;;;;;7.16;80.59;99068.38;6330989;22;20034;-71
2021/11/07 00:07:11;;;;;;;0.82;0.82;;;;;;;7.17;79.87;99094.22;6331404;22;20018;-72
2021/11/07 00:09:46;;;;;;;0.67;0.67;;;;;;;7.16;78.37;99091.72;6331258;22;20015;-72
2021/11/07 00:12:18;;;;;;;0.40;0.40;;;;;;;7.09;79.18;99086.03;6331076;22;20018;-71
2021/11/07 00:14:49;;;;;;;0.77;0.77;;;;;;;7.10;78.85;99118.81;6306857;22;20096;-72
2021/11/07 00:17:17;;;;;;;0.73;0.73;;;;;;;7.01;79.27;99103.75;6306152;22;20101;-72
2021/11/07 00:19:57;;;;;;;0.63;0.63;;;;;;;7.01;76.77;99092.53;6304835;22;20101;-72
2021/11/07 00:22:36;;;;;;;0.50;0.50;;;;;;;7.04;75.77;99123.50;6304884;22;20050;-72
2021/11/07 00:25:15;;;;;;;0.50;0.50;;;;;;;6.83;76.94;99102.13;6307607;22;20018;-70
2021/11/07 00:28:04;;;;;;;0.70;0.70;;;;;;;6.85;74.71;99097.69;6332677;22;20015;-70
2021/11/07 00:36:06;;;;;;;0.40;0.40;;;;;;;6.53;74.21;99101.09;6309325;22;20073;-70
2021/11/07 00:44:16;;;;;;;0.55;0.55;;;;;;;6.49;74.10;99099.56;6305387;22;20339;-70
2021/11/07 00:49:57;;;;;;;0.40;0.40;;;;;;;6.26;74.48;99101.53;6333316;22;20486;-71
2021/11/07 00:57:14;;;;;;;0.50;0.50;;;;;;;6.28;74.38;99148.94;6305392;22;20038;-70
2021/11/07 01:02:26;;;;;;;0.50;0.50;;;;;;;6.23;75.24;99155.28;6308052;22;20587;-72
2021/11/07 01:04:52;;;;;;;0.50;0.50;;;;;;;6.28;74.52;99146.34;6305453;22;20015;-71
2021/11/07 01:07:20;;;;;;;0.80;0.80;;;;;;;6.17;75.96;99150.41;6332837;22;20454;-70
2021/11/07 01:09:46;;;;;;;0.75;0.75;;;;;;;6.16;75.93;99170.28;6280139;22;20038;-70
2021/11/07 01:12:13;;;;;;;0.50;0.50;;;;;;;6.09;76.95;99173.22;6332489;22;20019;-71
2021/11/07 01:14:39;;;;;;;0.50;0.50;;;;;;;6.01;77.64;99165.84;6332092;22;20065;-71
2021/11/07 01:17:05;;;;;;;0.50;0.50;;;;;;;5.86;79.07;99060.34;6331678;22;20050;-71
2021/11/07 01:19:31;;;;;;;0.55;0.55;;;;;;;5.90;78.12;99178.44;6332167;22;20048;-71
2021/11/07 01:22:01;;;;;;;0.70;0.70;;;;;;;5.86;78.57;99202.81;6332107;22;20015;-72
2021/11/07 01:24:36;;;;;;;0.73;0.73;;;;;;;5.77;79.03;99193.69;6332379;22;20019;-71
2021/11/07 01:29:51;;;;;;;0.40;0.40;;;;;;;5.83;78.80;99208.09;6330974;22;20053;-71
2021/11/07 01:32:20;;;;;;;0.70;0.70;;;;;;;5.75;78.27;99205.88;6330891;22;20015;-70
2021/11/07 01:37:16;;;;;;;0.50;0.50;;;;;;;5.74;77.47;99203.34;6333138;22;20014;-71
2021/11/07 01:39:58;;;;;;;0.40;0.40;;;;;;;5.70;77.75;99206.97;6333831;22;20015;-72
2021/11/07 01:42:36;;;;;;;0.57;0.57;;;;;;;5.64;77.83;99202.94;6333895;22;20452;-72
2021/11/07 01:45:23;;;;;;;0.50;0.50;;;;;;;5.65;77.59;99206.34;6335343;22;20018;-70
2021/11/07 01:47:53;;;;;;;0.50;0.50;;;;;;;5.63;78.27;99208.16;6335500;22;20029;-70
2021/11/07 01:50:20;;;;;;;0.57;0.57;;;;;;;5.65;77.47;99217.56;6334184;22;20022;-70
2021/11/07 01:52:52;;;;;;;0.65;0.65;;;;;;;5.69;78.02;99187.19;6333764;22;20011;-71
2021/11/07 01:55:19;;;;;;;0.40;0.40;;;;;;;5.65;77.88;99232.25;6333743;22;20358;-70
2021/11/07 01:57:49;;;;;;;0.50;0.50;;;;;;;5.61;78.16;99228.97;6333513;22;20029;-71
2021/11/07 02:00:42;;;;;;;0.50;0.50;;;;;;;5.73;76.77;99222.38;6333813;22;20015;-71
2021/11/07 02:03:09;;;;;;;0.50;0.50;;;;;;;5.66;77.58;99234.75;6328859;22;20022;-70
2021/11/07 02:05:35;;;;;;;0.50;0.50;;;;;;;5.61;78.22;99264.34;6332039;22;20048;-71
2021/11/07 02:08:03;;;;;;;0.98;0.93;;;;;;;5.73;76.54;99212.84;6332153;22;20102;-70
2021/11/07 02:10:29;;;;;;;0.50;0.50;;;;;;;5.76;76.27;99256.75;6333658;22;20034;-70
2021/11/07 02:12:55;;;;;;;0.50;0.50;;;;;;;5.74;76.02;99242.19;6306057;22;20019;-72
2021/11/07 02:15:22;;;;;;;4.38;1.25;;;;;;;5.81;75.53;99266.91;6331696;22;20480;-70
2021/11/07 02:17:48;;;;;;;0.50;0.50;;;;;;;5.78;76.13;99241.16;6333345;22;20072;-70
2021/11/07 02:20:21;;;;;;;0.40;0.40;;;;;;;5.76;76.54;99282.63;6331943;22;20665;-70
2021/11/07 02:22:48;;;;;;;0.43;0.43;;;;;;;5.68;77.58;99286.47;6331781;22;20450;-71
2021/11/07 02:25:14;;;;;;;0.40;0.40;;;;;;;5.70;76.86;99274.28;6332050;22;20048;-71
2021/11/07 02:27:40;;;;;;;0.60;0.60;;;;;;;5.74;75.26;99288.78;6333535;22;20019;-70
2021/11/07 02:30:07;;;;;;;0.57;0.57;;;;;;;5.74;74.98;99305.19;6333105;22;20022;-70
2021/11/07 02:32:33;;;;;;;0.50;0.50;;;;;;;5.68;74.87;99295.09;6333514;22;20084;-71
2021/11/07 02:34:59;;;;;;;0.52;0.52;;;;;;;5.72;72.93;99293.22;6333253;22;20414;-71
2021/11/07 02:37:25;;;;;;;0.50;0.50;;;;;;;5.75;73.45;99298.25;6332032;22;20053;-70
2021/11/07 02:39:51;;;;;;;1.02;0.80;;;;;;;5.68;74.32;99317.56;6332957;22;20011;-70
2021/11/07 02:42:17;;;;;;;0.50;0.50;;;;;;;5.64;74.91;99326.34;6333398;22;20018;-71
2021/11/07 02:44:45;;;;;;;0.43;0.43;;;;;;;5.63;74.14;99322.06;6333324;22;20545;-69
2021/11/07 02:47:11;;;;;;;0.50;0.50;;;;;;;5.49;75.48;99317.53;6333339;22;20015;-70
2021/11/07 02:49:37;;;;;;;0.50;0.50;;;;;;;5.50;73.61;99298.47;6333428;22;20067;-70
2021/11/07 02:52:05;;;;;;;0.50;0.50;;;;;;;5.58;73.13;99324.03;6332917;22;20025;-70
2021/11/07 02:54:32;;;;;;;0.50;0.50;;;;;;;5.45;75.18;99347.00;6333209;22;20045;-71
2021/11/07 02:57:00;;;;;;;0.50;0.50;;;;;;;5.37;77.75;99341.31;6331277;22;20477;-71
2021/11/07 02:59:27;;;;;;;0.50;0.50;;;;;;;5.42;76.08;99341.97;6331926;22;20048;-71
2021/11/07 03:01:54;;;;;;;0.80;0.80;;;;;;;5.48;73.30;99346.03;6280009;22;20719;-71
2021/11/07 03:04:21;;;;;;;3.33;0.65;;;;;;;5.44;74.42;99339.31;6331592;22;20018;-70
2021/11/07 03:06:47;;;;;;;0.50;0.50;;;;;;;5.50;73.00;99333.88;6333028;22;20018;-71
2021/11/07 03:09:16;;;;;;;0.40;0.40;;;;;;;5.46;74.04;99360.81;6331307;22;20019;-71
2021/11/07 03:11:42;;;;;;;0.40;0.40;;;;;;;5.49;72.10;99352.91;6333040;22;20019;-71
2021/11/07 03:14:14;;;;;;;0.50;0.50;;;;;;;5.46;72.26;99363.41;6305542;22;20071;-69
2021/11/07 03:16:40;;;;;;;0.60;0.60;;;;;;;5.47;70.64;99354.69;6332822;22;20338;-70
2021/11/07 03:19:06;;;;;;;0.57;0.57;;;;;;;5.48;70.90;99362.41;6332909;22;20015;-71
2021/11/07 03:21:32;;;;;;;0.50;0.50;;;;;;;5.41;71.58;99388.59;6333105;22;20068;-70
2021/11/07 03:23:58;;;;;;;0.52;0.52;;;;;;;5.37;70.86;99379.28;6332808;22;20018;-70
2021/11/07 03:26:26;;;;;;;0.50;0.50;;;;;;;5.34;71.59;99384.59;6305595;22;20018;-70
2021/11/07 03:28:58;;;;;;;0.50;0.50;;;;;;;5.41;70.46;99379.09;6331204;22;20424;-70
2021/11/07 03:34:00;;;;;;;0.57;0.57;;;;;;;5.28;72.23;99413.31;6333271;22;20019;-71
2021/11/07 03:36:26;;;;;;;0.50;0.50;;;;;;;5.33;71.34;99414.81;6333545;22;20422;-70
2021/11/07 03:38:53;;;;;;;0.50;0.50;;;;;;;5.29;72.36;99415.00;6332825;22;20011;-71
2021/11/07 03:41:19;;;;;;;0.60;0.60;;;;;;;5.27;72.68;99415.03;6333045;22;20023;-70
2021/11/07 03:43:46;;;;;;;0.40;0.40;;;;;;;5.31;71.97;99426.13;6332798;22;20064;-70
2021/11/07 03:46:12;;;;;;;0.50;0.50;;;;;;;5.32;71.21;99423.50;6332711;22;20019;-69
2021/11/07 03:48:38;;;;;;;0.55;0.55;;;;;;;5.28;72.30;99413.31;6331331;22;20018;-70
2021/11/07 03:51:05;;;;;;;0.50;0.50;;;;;;;5.31;72.29;99446.81;6332830;22;20401;-70
2021/11/07 03:53:31;;;;;;;5.88;1.08;;;;;;;5.21;72.18;99442.03;6332961;22;20100;-69
2021/11/07 03:56:00;;;;;;;0.50;0.50;;;;;;;5.23;71.69;99439.38;6332646;22;20072;-71
2021/11/07 03:58:26;;;;;;;0.50;0.50;;;;;;;5.19;71.43;99438.66;6333311;22;20018;-72
2021/11/07 04:00:52;;;;;;;0.50;0.50;;;;;;;5.23;71.54;99449.72;6333817;22;20021;-70
2021/11/07 04:03:18;;;;;;;0.50;0.50;;;;;;;5.24;70.99;99454.84;6334390;22;20018;-71
2021/11/07 04:05:44;;;;;;;0.50;0.50;;;;;;;5.19;71.72;99459.38;6337201;22;20458;-72
2021/11/07 04:08:10;;;;;;;0.50;0.50;;;;;;;5.22;71.34;99459.25;6335988;22;20026;-71
2021/11/07 04:10:37;;;;;;;0.50;0.50;;;;;;;5.19;71.45;99472.31;6333267;22;20122;-71
2021/11/07 04:13:05;;;;;;;0.50;0.50;;;;;;;5.13;71.65;99475.13;6332769;22;20021;-71
2021/11/07 04:15:32;;;;;;;0.50;0.50;;;;;;;5.10;72.62;99495.94;6330941;22;20374;-71
2021/11/07 04:17:58;;;;;;;0.50;0.50;;;;;;;5.01;72.73;99485.06;6332700;22;20040;-71
2021/11/07 04:20:24;;;;;;;0.50;0.50;;;;;;;5.00;72.48;99493.75;6332895;22;20063;-71
2021/11/07 04:22:50;;;;;;;0.50;0.50;;;;;;;5.03;72.24;99509.16;6331060;22;20089;-70
2021/11/07 04:25:16;;;;;;;0.68;0.68;;;;;;;5.06;72.60;99499.53;6332568;22;20022;-70
2021/11/07 04:27:42;;;;;;;0.50;0.50;;;;;;;5.00;72.30;99504.09;6332819;22;20092;-70
2021/11/07 04:30:09;;;;;;;0.50;0.50;;;;;;;4.89;73.27;99495.91;6330863;22;20015;-70
2021/11/07 04:32:36;;;;;;;0.50;0.50;;;;;;;4.99;71.51;99513.59;6331403;22;20019;-71
2021/11/07 04:35:03;;;;;;;0.70;0.70;;;;;;;4.94;71.48;99520.69;6330873;22;20469;-71
2021/11/07 04:37:29;;;;;;;0.50;0.50;;;;;;;4.91;71.79;99530.31;6331779;22;20057;-71
2021/11/07 04:39:56;;;;;;;0.60;0.60;;;;;;;4.91;71.33;99525.16;6332430;22;20049;-70
2021/11/07 04:42:22;;;;;;;0.63;0.63;;;;;;;4.78;72.97;99535.06;6331252;22;20018;-70
2021/11/07 04:44:48;;;;;;;0.50;0.50;;;;;;;4.77;71.54;99538.59;6331187;22;20010;-70
2021/11/07 04:47:14;;;;;;;0.57;0.57;;;;;;;4.87;71.69;99542.53;6332992;22;20339;-70
2021/11/07 04:49:40;;;;;;;0.50;0.50;;;;;;;4.84;71.50;99534.88;6332837;22;20011;-71
2021/11/07 04:52:11;;;;;;;0.60;0.60;;;;;;;4.85;72.29;99556.38;6333120;22;20476;-70
2021/11/07 04:54:40;;;;;;;0.45;0.45;;;;;;;4.84;72.55;99559.88;6258201;22;20026;-76
2021/11/07 04:57:06;;;;;;;0.50;0.50;;;;;;;4.87;72.11;99572.72;6327897;22;20015;-69
2021/11/07 04:59:32;;;;;;;0.60;0.60;;;;;;;4.89;72.44;99566.56;6330479;22;20094;-71
2021/11/07 05:01:58;;;;;;;0.50;0.50;;;;;;;4.96;71.52;99573.22;6329869;22;20053;-71
2021/11/07 05:04:24;;;;;;;0.47;0.47;;;;;;;4.92;72.34;99578.53;6330131;22;20079;-71
2021/11/07 05:06:52;;;;;;;0.55;0.55;;;;;;;4.88;72.69;99566.63;6329964;22;20124;-70
2021/11/07 05:09:18;;;;;;;0.80;0.80;;;;;;;4.95;72.21;99576.69;6327918;22;20015;-71
2021/11/07 05:11:45;;;;;;;0.60;0.60;;;;;;;4.94;71.61;99574.19;6329541;22;20092;-71
2021/11/07 05:14:11;;;;;;;0.50;0.50;;;;;;;4.91;71.66;99588.03;6330110;22;20159;-71
2021/11/07 05:16:37;;;;;;;0.40;0.40;;;;;;;4.91;71.81;99577.69;6332253;22;20019;-74
2021/11/07 05:19:04;;;;;;;0.50;0.50;;;;;;;4.92;71.57;99586.28;6331171;22;20072;-71
2021/11/07 05:21:30;;;;;;;0.50;0.50;;;;;;;4.89;72.08;99599.34;6329804;22;20049;-70
2021/11/07 05:23:56;;;;;;;0.55;0.55;;;;;;;4.91;72.21;99607.91;6330077;22;20021;-73
2021/11/07 05:26:22;;;;;;;0.50;0.50;;;;;;;4.92;72.65;99600.06;6329123;22;20019;-70
2021/11/07 05:28:49;;;;;;;0.50;0.50;;;;;;;4.94;72.20;99603.44;6331990;22;20632;-71
2021/11/07 05:31:16;;;;;;;0.70;0.70;;;;;;;4.97;73.12;99610.28;6332192;22;20339;-70
2021/11/07 05:33:42;;;;;;;0.50;0.50;;;;;;;5.06;72.46;99604.75;6331354;22;20097;-71
2021/11/07 05:36:08;;;;;;;0.93;0.93;;;;;;;5.05;72.65;99606.50;6306514;22;20015;-72
2021/11/07 05:38:34;;;;;;;0.50;0.50;;;;;;;5.02;73.19;99619.53;6306596;22;20535;-71
2021/11/07 05:41:00;;;;;;;0.85;0.70;;;;;;;5.00;73.69;99626.53;6333314;22;20106;-71
2021/11/07 05:43:26;;;;;;;0.70;0.70;;;;;;;4.99;74.62;99621.41;6334327;22;20014;-69
2021/11/07 05:45:52;;;;;;;0.70;0.70;;;;;;;4.92;75.87;99615.59;6333473;22;20513;-71
2021/11/07 05:48:18;;;;;;;0.50;0.50;;;;;;;4.90;75.57;99626.91;6331575;22;20023;-72
2021/11/07 05:50:44;;;;;;;0.75;0.75;;;;;;;4.86;75.00;99628.75;6333545;22;20018;-72
2021/11/07 05:53:10;;;;;;;0.55;0.55;;;;;;;4.82;75.11;99624.56;6306462;22;20049;-71
2021/11/07 05:55:36;;;;;;;0.50;0.50;;;;;;;4.82;75.84;99627.16;6306860;22;20019;-72
2021/11/07 05:58:04;;;;;;;0.60;0.60;;;;;;;4.81;76.24;99643.56;6305880;22;20014;-71
2021/11/07 06:00:30;;;;;;;0.60;0.60;;;;;;;4.82;77.02;99640.09;6329972;22;20749;-71
2021/11/07 06:02:57;;;;;;;0.50;0.50;;;;;;;4.82;76.06;99647.84;6278500;22;20014;-71
2021/11/07 06:05:23;;;;;;;0.50;0.50;;;;;;;4.79;77.38;99655.72;6331675;22;20171;-71
2021/11/07 06:07:50;;;;;;;0.82;0.82;;;;;;;4.75;78.75;99648.94;6331212;22;20023;-71
2021/11/07 06:10:16;;;;;;;0.70;0.70;;;;;;;4.73;80.42;99668.84;6331228;22;20103;-69
2021/11/07 06:12:43;;;;;;;0.50;0.50;;;;;;;4.73;80.53;99684.38;6331447;22;20415;-70
2021/11/07 06:15:09;;;;;;;0.90;0.90;;;;;;;4.69;80.19;99682.78;6331001;22;20102;-72
2021/11/07 06:17:35;;;;;;;0.70;0.70;;;;;;;4.71;80.29;99648.22;6331390;22;20430;-72
2021/11/07 06:20:01;;;;;;;0.70;0.70;;;;;;;4.87;79.65;99658.91;6328846;22;20018;-72
2021/11/07 06:22:28;;;;;;;0.60;0.60;;;;;;;4.95;79.01;99681.88;6330745;22;20022;-72
2021/11/07 06:24:55;;;;;;;0.88;0.88;;;;;;;4.97;77.58;99680.97;6330712;22;20038;-73
2021/11/07 06:27:21;;;;;;;0.50;0.50;;;;;;;4.95;76.67;99669.81;6332625;22;20019;-72
2021/11/07 06:29:47;;;;;;;0.50;0.50;;;;;;;4.93;76.68;99669.03;6330486;22;20025;-70
2021/11/07 06:32:14;;;;;;;0.50;0.50;;;;;;;5.03;76.40;99685.06;6329151;22;20358;-72
2021/11/07 06:34:41;;;;;;;0.50;0.50;;;;;;;5.11;75.11;99691.63;6303178;22;20053;-71
2021/11/07 06:37:08;;;;;;;0.50;0.50;;;;;;;5.06;75.03;99684.94;6330689;22;20102;-70
2021/11/07 06:39:55;;;;;;;;;;;;;;;;;;;;;
2021/11/07 06:42:48;;;;;;;0.50;0.50;;;;;;;5.18;72.75;99685.34;6330779;22;20117;-72
2021/11/07 06:45:14;;;;;;;0.50;0.50;;;;;;;5.23;72.01;99693.78;6330988;22;20026;-71
2021/11/07 06:47:41;;;;;;;0.50;0.50;;;;;;;5.16;73.17;99699.25;6331015;22;20019;-72
2021/11/07 06:50:07;;;;;;;0.60;0.60;;;;;;;5.18;73.52;99708.66;6330831;22;20015;-71
2021/11/07 06:52:34;;;;;;;0.70;0.70;;;;;;;5.17;74.27;99700.94;6331123;22;20056;-71
2021/11/07 06:55:00;;;;;;;0.50;0.50;;;;;;;5.19;72.08;99692.22;6330348;22;20033;-70
2021/11/07 06:57:26;;;;;;;0.40;0.40;;;;;;;5.24;69.38;99692.91;6328734;22;20046;-71
2021/11/07 06:59:52;;;;;;;0.50;0.50;;;;;;;5.27;69.30;99704.06;6330438;22;20015;-72
2021/11/07 07:02:18;;;;;;;0.50;0.50;;;;;;;5.29;69.52;99707.41;6330490;22;20022;-72
2021/11/07 07:04:44;;;;;;;0.55;0.55;;;;;;;5.32;70.85;99713.34;6330548;22;20010;-72
2021/11/07 07:07:13;;;;;;;0.60;0.60;;;;;;;5.19;71.37;99709.50;6327995;22;20019;-71
2021/11/07 07:09:49;;;;;;;0.55;0.55;;;;;;;5.21;71.83;99707.69;6328906;22;20076;-72
2021/11/07 07:12:28;;;;;;;0.68;0.68;;;;;;;5.24;72.78;99712.75;6329377;22;20018;-71
2021/11/07 07:17:38;;;;;;;0.68;0.68;;;;;;;5.33;70.21;99703.84;6329279;22;20102;-72
2021/11/07 07:31:11;;;;;;;0.50;0.50;;;;;;;5.22;67.53;99723.16;6326645;22;20014;-74
2021/11/07 07:36:31;;;;;;;0.60;0.60;;;;;;;5.40;66.95;99726.00;6300016;22;20022;-73
2021/11/07 07:38:58;;;;;;;0.60;0.60;;;;;;;5.63;67.20;99720.81;6324846;22;20019;-73
2021/11/07 07:41:25;;;;;;;0.70;0.70;;;;;;;5.49;68.13;99718.75;6329066;22;20019;-73
2021/11/07 07:43:54;;;;;;;0.50;0.50;;;;;;;5.47;68.00;99717.09;6328877;22;20018;-72
2021/11/07 07:46:20;;;;;;;1.02;1.02;;;;;;;5.65;68.14;99735.41;6328496;22;20030;-73
2021/11/07 07:48:47;;;;;;;0.60;0.60;;;;;;;6.16;66.40;99730.03;6328389;22;20075;-72
2021/11/07 07:51:17;;;;;;;0.60;0.60;;;;;;;5.97;66.58;99723.88;6326300;22;20018;-73
2021/11/07 07:53:44;;;;;;;0.70;0.70;;;;;;;6.12;65.34;99727.59;6328984;22;20015;-73
2021/11/07 07:56:11;;;;;;;0.60;0.60;;;;;;;5.56;67.40;99725.38;6328817;22;20805;-73
2021/11/07 07:58:37;;;;;;;0.57;0.57;;;;;;;5.51;67.23;99731.63;6327702;22;20093;-71
2021/11/07 08:01:04;;;;;;;0.60;0.60;;;;;;;5.34;67.16;99732.22;6327692;22;20201;-73
2021/11/07 08:03:31;;;;;;;0.50;0.50;;;;;;;5.34;66.50;99737.41;6301683;22;20015;-74
2021/11/07 08:05:57;;;;;;;0.50;0.50;;;;;;;5.58;66.23;99733.94;6328989;22;20026;-73
2021/11/07 08:08:23;;;;;;;0.90;0.90;;;;;;;5.70;66.68;99735.22;6329295;22;20105;-74
2021/11/07 08:10:49;;;;;;;0.50;0.50;;;;;;;5.67;66.56;99737.94;6330602;22;20050;-74
2021/11/07 08:13:15;;;;;;;0.85;0.85;;;;;;;5.82;66.29;99728.75;6330660;22;20046;-73
2021/11/07 08:15:41;;;;;;;0.60;0.60;;;;;;;5.56;67.18;99727.97;6330753;22;20568;-73
2021/11/07 08:18:07;;;;;;;1.90;1.85;;;;;;;5.75;66.60;99744.53;6329086;22;20021;-73
2021/11/07 08:20:33;;;;;;;0.60;0.60;;;;;;;5.90;65.31;99744.88;6330816;22;20018;-73
2021/11/07 08:23:00;;;;;;;0.50;0.50;;;;;;;5.79;66.33;99742.69;6330654;22;20026;-73
2021/11/07 08:25:26;;;;;;;1.35;1.35;;;;;;;5.97;65.81;99749.78;6329772;22;20466;-73
2021/11/07 08:28:00;;;;;;;0.73;0.73;;;;;;;6.15;65.02;99748.25;6330207;22;20018;-73
2021/11/07 08:30:26;;;;;;;0.60;0.60;;;;;;;6.31;63.72;99738.97;6331035;22;20019;-73
2021/11/07 08:32:53;;;;;;;0.50;0.50;;;;;;;6.37;62.75;99754.28;6330011;22;20010;-72
2021/11/07 08:35:19;;;;;;;0.50;0.50;;;;;;;6.34;63.04;99758.72;6305413;22;20068;-74
2021/11/07 08:40:15;;;;;;;2.17;0.98;;;;;;;6.06;63.91;99759.78;6335326;22;20026;-75
2021/11/07 08:42:46;;;;;;;0.50;0.50;;;;;;;5.98;64.57;99754.06;6304945;22;20019;-75
2021/11/07 08:54:32;;;;;;;0.70;0.70;;;;;;;5.77;65.33;99762.59;6333087;22;20614;-73
2021/11/07 09:02:10;;;;;;;0.65;0.65;;;;;;;6.11;64.47;99749.25;6333404;22;20019;-72
2021/11/07 09:09:40;;;;;;;0.70;0.70;;;;;;;6.31;64.42;99743.31;6334518;22;20097;-75
2021/11/07 09:12:07;;;;;;;0.85;0.85;;;;;;;6.51;63.88;99746.78;6332095;22;20050;-74
2021/11/07 09:14:37;;;;;;;2.35;2.15;;;;;;;6.44;63.47;99750.53;6306833;22;20577;-73
2021/11/07 09:17:05;;;;;;;0.67;0.67;;;;;;;6.73;63.09;99729.47;6333727;22;20466;-73
2021/11/07 09:19:32;;;;;;;0.55;0.55;;;;;;;6.48;61.92;99730.53;6305798;22;20035;-74
2021/11/07 09:22:05;;;;;;;0.60;0.60;;;;;;;6.31;63.06;99733.78;6331341;22;20025;-74
2021/11/07 09:25:19;;;;;;;0.60;0.60;;;;;;;6.41;63.63;99729.91;6281692;22;20014;-73
2021/11/07 09:35:21;;;;;;;0.88;0.88;;;;;;;6.54;63.78;99730.28;6332163;22;20110;-73
2021/11/07 09:40:07;;;;;;;0.65;0.60;;;;;;;6.63;62.28;99719.50;6331779;22;20019;-73
2021/11/07 09:43:10;;;;;;;0.50;0.50;;;;;;;6.45;63.46;99717.66;6306321;22;20408;-72
2021/11/07 09:45:30;;;;;;;0.60;0.60;;;;;;;6.57;63.15;99718.03;6309553;22;20023;-74
2021/11/07 09:48:05;;;;;;;0.50;0.50;;;;;;;6.59;62.51;99715.34;6332831;22;20019;-74
2021/11/07 09:50:31;;;;;;;0.60;0.60;;;;;;;6.37;63.57;99717.13;6331417;22;20015;-74
2021/11/07 09:52:58;;;;;;;0.95;0.95;;;;;;;6.48;63.08;99709.78;6331194;22;20019;-75
2021/11/07 09:55:26;;;;;;;0.50;0.50;;;;;;;6.46;63.34;99717.59;6328302;22;20069;-73
2021/11/07 09:57:54;;;;;;;0.70;0.70;;;;;;;6.46;62.67;99722.78;6331683;22;20019;-74
2021/11/07 10:00:27;;;;;;;0.60;0.60;;;;;;;6.66;62.33;99721.97;6331920;22;20523;-76
2021/11/07 10:02:53;;;;;;;0.52;0.52;;;;;;;6.60;62.82;99735.19;6318025;22;20033;-76
2021/11/07 10:05:20;;;;;;;0.60;0.60;;;;;;;6.66;63.29;99724.56;6346106;22;20500;-75
2021/11/07 10:08:01;;;;;;;0.70;0.70;;;;;;;6.58;62.97;99726.63;6345962;22;20060;-75
2021/11/07 10:10:31;;;;;;;0.50;0.50;;;;;;;6.46;63.52;99720.19;6347458;22;20018;-75
2021/11/07 10:12:58;;;;;;;0.50;0.50;;;;;;;6.48;63.64;99735.72;6296509;22;20067;-76
2021/11/07 10:15:52;;;;;;;0.60;0.60;;;;;;;6.76;63.23;99729.31;6287665;22;20023;-73
2021/11/07 10:19:17;;;;;;;0.60;0.60;;;;;;;6.76;62.64;99731.06;6305332;22;20022;-75
2021/11/07 10:21:34;;;;;;;1.90;1.77;;;;;;;6.85;62.46;99725.50;6321290;22;20474;-73
2021/11/07 10:24:10;;;;;;;0.70;0.70;;;;;;;6.99;62.60;99727.53;6332658;22;20019;-74
2021/11/07 10:26:38;;;;;;;0.60;0.60;;;;;;;7.14;61.50;99721.66;6333112;22;20500;-74
2021/11/07 10:29:07;;;;;;;3.03;1.35;;;;;;;7.16;61.60;99730.25;6331182;22;20102;-74
2021/11/07 10:31:59;;;;;;;1.02;1.02;;;;;;;7.02;60.68;99723.03;6332572;22;20073;-73
2021/11/07 10:35:01;;;;;;;0.73;0.73;;;;;;;7.01;60.56;99730.88;6332258;22;20050;-73
2021/11/07 10:45:43;;;;;;;0.70;0.70;;;;;;;6.88;61.02;99733.16;6332900;22;20101;-74
2021/11/07 10:48:19;;;;;;;0.80;0.80;;;;;;;6.77;60.66;99705.06;6330828;22;20015;-73
2021/11/07 10:53:48;;;;;;;0.50;0.50;;;;;;;6.95;60.39;99728.53;6331893;22;20019;-72
2021/11/07 10:56:15;;;;;;;0.50;0.50;;;;;;;6.96;60.47;99718.13;6331410;22;20038;-73
2021/11/07 10:58:42;;;;;;;1.58;0.70;;;;;;;7.05;60.22;99715.13;6308416;22;20022;-75
2021/11/07 11:01:10;;;;;;;0.68;0.68;;;;;;;7.17;60.23;99714.59;6330576;22;20018;-74
2021/11/07 11:03:41;;;;;;;0.80;0.80;;;;;;;7.21;58.36;99710.97;6331100;22;20037;-75
2021/11/07 11:08:44;;;;;;;0.95;0.95;;;;;;;7.23;57.37;99703.94;6331091;22;20014;-74
2021/11/07 11:11:22;;;;;;;2.80;1.15;;;;;;;7.19;58.39;99705.00;6330634;22;20015;-75
2021/11/07 11:13:54;;;;;;;0.75;0.75;;;;;;;7.14;59.27;99696.56;6307392;22;20019;-76
2021/11/07 11:19:48;;;;;;;0.50;0.50;;;;;;;7.22;59.65;99697.06;6333690;22;20093;-74
2021/11/07 11:24:51;;;;;;;0.75;0.75;;;;;;;7.36;58.52;99691.28;6295064;22;20534;-73
2021/11/07 11:30:08;;;;;;;0.63;0.63;;;;;;;7.21;58.38;99690.19;6305730;22;20021;-74
2021/11/07 11:32:42;;;;;;;0.60;0.60;;;;;;;7.18;58.90;99694.66;6309376;22;20015;-75
2021/11/07 11:35:18;;;;;;;0.70;0.70;;;;;;;7.23;58.34;99685.75;6306504;22;20353;-75
2021/11/07 11:40:39;;;;;;;0.70;0.70;;;;;;;7.09;58.64;99679.50;6329746;22;20017;-75
2021/11/07 11:43:14;;;;;;;0.68;0.68;;;;;;;7.05;59.20;99678.78;6306819;22;20053;-75
2021/11/07 11:45:43;;;;;;;0.75;0.75;;;;;;;7.01;59.36;99674.63;6331727;22;20029;-74
2021/11/07 11:51:27;;;;;;;1.40;1.30;;;;;;;6.93;59.80;99673.28;6332112;22;20014;-75
2021/11/07 12:00:02;;;;;;;1.08;1.08;;;;;;;6.92;60.03;99677.63;6249672;22;20029;-75
2021/11/07 12:02:50;;;;;;;0.65;0.65;;;;;;;6.94;60.32;99683.59;6330833;22;20015;-74
2021/11/07 12:05:29;;;;;;;0.90;0.90;;;;;;;6.90;61.37;99679.47;6332492;22;20026;-75
2021/11/07 12:08:09;;;;;;;2.25;1.27;;;;;;;6.93;60.86;99675.88;6306291;22;20018;-75
2021/11/07 12:10:53;;;;;;;0.60;0.60;;;;;;;6.98;60.28;99685.16;6331909;22;20446;-76
2021/11/07 12:13:43;;;;;;;1.45;1.35;;;;;;;7.02;60.59;99665.09;6330257;22;20392;-74
2021/11/07 12:16:28;;;;;;;6.10;2.88;;;;;;;7.03;60.19;99662.47;6329606;22;20034;-73
2021/11/07 12:19:06;;;;;;;5.05;1.30;;;;;;;7.08;60.66;99673.47;6330152;22;20011;-76
2021/11/07 12:21:57;;;;;;;1.40;1.40;;;;;;;7.10;60.58;99663.84;6329712;22;20438;-79
2021/11/07 12:24:30;;;;;;;1.50;1.50;;;;;;;7.11;61.07;99659.50;6311300;22;20029;-76
2021/11/07 12:27:17;;;;;;;0.73;0.73;;;;;;;7.06;61.02;99653.69;6303906;22;20064;-75
2021/11/07 12:29:44;;;;;;;1.42;1.33;;;;;;;7.05;61.18;99660.63;6304066;22;20698;-74
2021/11/07 12:32:11;;;;;;;3.83;2.63;;;;;;;7.07;61.73;99657.94;6331412;22;20022;-74
2021/11/07 12:40:52;;;;;;;1.42;1.42;;;;;;;7.14;61.04;99649.81;6338746;22;20028;-74
2021/11/07 12:43:20;;;;;;;0.50;0.50;;;;;;;7.11;61.59;99649.13;6246641;22;20029;-75
2021/11/07 12:45:49;;;;;;;0.70;0.70;;;;;;;7.07;61.20;99648.41;6340254;22;20050;-75
2021/11/07 12:48:47;;;;;;;0.70;0.70;;;;;;;7.04;59.98;99639.91;6331414;22;20458;-75
2021/11/07 12:51:16;;;;;;;1.83;1.73;;;;;;;7.06;59.57;99641.56;6331180;22;20018;-75
2021/11/07 12:54:04;;;;;;;0.60;0.60;;;;;;;7.06;59.47;99641.56;6332651;22;20011;-76
2021/11/07 12:56:47;;;;;;;0.80;0.80;;;;;;;7.02;59.81;99640.00;6330919;22;20029;-74
2021/11/07 12:59:27;;;;;;;1.77;1.40;;;;;;;7.02;60.40;99639.16;6329987;22;20090;-75
2021/11/07 13:01:54;;;;;;;0.75;0.75;;;;;;;7.01;60.16;99643.50;6330111;22;20432;-75
2021/11/07 13:04:22;;;;;;;0.85;0.85;;;;;;;6.96;59.92;99629.03;6330576;22;20522;-75
2021/11/07 13:06:54;;;;;;;1.35;1.30;;;;;;;6.98;60.26;99638.44;6330207;22;20015;-75
2021/11/07 13:09:21;;;;;;;1.13;1.13;;;;;;;6.98;60.69;99648.81;6331854;22;20030;-74
2021/11/07 13:11:52;;;;;;;0.70;0.70;;;;;;;6.91;61.53;99642.19;6304258;22;20018;-75
2021/11/07 13:14:36;;;;;;;4.57;1.67;;;;;;;6.93;60.79;99637.81;6329889;22;20019;-75
2021/11/07 13:19:56;;;;;;;1.13;1.13;;;;;;;6.83;61.62;99639.13;6304907;22;20470;-75
2021/11/07 13:27:55;;;;;;;1.40;1.40;;;;;;;6.69;62.17;99621.53;6330047;22;20015;-75
2021/11/07 13:30:28;;;;;;;0.82;0.82;;;;;;;6.67;62.50;99622.53;6304836;22;20046;-75
2021/11/07 13:32:55;;;;;;;0.60;0.60;;;;;;;6.69;62.21;99628.47;6331485;22;20449;-75
2021/11/07 13:35:24;;;;;;;5.75;1.60;;;;;;;6.58;63.11;99622.88;6333171;22;20019;-74
2021/11/07 13:38:05;;;;;;;1.58;1.48;;;;;;;6.52;63.74;99620.56;6306031;22;20093;-75
2021/11/07 13:40:35;;;;;;;1.67;1.58;;;;;;;6.40;63.87;99618.50;6332311;22;20020;-75
2021/11/07 13:43:17;;;;;;;1.85;1.70;;;;;;;6.34;64.48;99609.22;6306487;22;20548;-74
2021/11/07 13:45:46;;;;;;;1.73;1.63;;;;;;;6.29;64.63;99614.59;6334132;22;20023;-75
2021/11/07 13:48:19;;;;;;;1.70;1.58;;;;;;;6.26;64.94;99612.13;6332861;22;20015;-74
2021/11/07 13:50:45;;;;;;;5.10;3.13;;;;;;;6.29;65.16;99617.19;6330850;22;20070;-76
2021/11/07 13:53:29;;;;;;;5.70;4.43;;;;;;;6.22;65.58;99613.16;6332460;22;20041;-74
2021/11/07 13:55:57;;;;;;;2.03;1.70;;;;;;;6.23;65.64;99603.63;6332379;22;20026;-75
2021/11/07 13:58:26;;;;;;;4.22;3.90;;;;;;;6.26;65.86;99606.09;6331236;22;20113;-75
2021/11/07 14:00:54;;;;;;;6.22;4.93;;;;;;;6.24;65.85;99606.19;6305256;22;20076;-75
2021/11/07 14:03:21;;;;;;;2.85;2.67;;;;;;;6.24;66.54;99598.41;6331238;22;20027;-75
2021/11/07 14:05:53;;;;;;;4.25;3.67;;;;;;;6.21;66.95;99601.13;6332302;22;20026;-75